Time;durP1;ratioP1;P1;durP2;ratioP2;P2;SDS_P1;SDS_P2;PMS_P1;PMS_P2;Temp;Humidity;BMP_temperature;BMP_pressure;BME280_temperature;BME280_humidity;BME280_pressure;Samples;Min_cycle;Max_cycle;Signal;HPM_P1;HPM_P2
2021/07/15 00:00:28;;;;;;;51.30;19.23;;;;;;;16.13;100.00;101616.84;5013536;28;20463;-74
2021/07/15 00:02:56;;;;;;;49.80;19.80;;;;;;;16.15;100.00;101619.47;5011412;28;20472;-74
2021/07/15 00:05:25;;;;;;;58.45;22.10;;;;;;;16.14;100.00;101624.00;5013362;28;20077;-76
2021/07/15 00:07:53;;;;;;;46.28;18.85;;;;;;;16.17;100.00;101626.53;5015174;28;20065;-75
2021/07/15 00:10:27;;;;;;;46.50;19.38;;;;;;;16.15;100.00;101625.72;5014042;28;20066;-73
2021/07/15 00:12:55;;;;;;;44.28;19.05;;;;;;;16.13;100.00;101624.94;5009536;28;20096;-74
2021/07/15 00:15:25;;;;;;;45.40;19.63;;;;;;;16.11;100.00;101631.34;5018994;28;20085;-74
2021/07/15 00:17:55;;;;;;;46.65;18.33;;;;;;;16.09;100.00;101627.81;5010154;28;20065;-74
2021/07/15 00:20:23;;;;;;;44.42;18.80;;;;;;;16.06;100.00;101640.47;5017946;28;20088;-74
2021/07/15 00:22:52;;;;;;;44.65;19.30;;;;;;;16.11;100.00;101639.41;5011367;28;20314;-73
2021/07/15 00:25:22;;;;;;;46.53;18.75;;;;;;;16.08;100.00;101642.22;5013633;28;20069;-74
2021/07/15 00:27:51;;;;;;;53.45;19.63;;;;;;;16.06;100.00;101632.38;5012938;28;20065;-74
2021/07/15 00:30:21;;;;;;;57.42;19.25;;;;;;;16.06;100.00;101635.09;5009655;28;20061;-74
2021/07/15 00:32:49;;;;;;;48.08;18.30;;;;;;;16.04;100.00;101641.50;5012802;28;20368;-74
2021/07/15 00:35:17;;;;;;;52.13;19.75;;;;;;;16.04;100.00;101631.59;5010500;28;20066;-74
2021/07/15 00:37:45;;;;;;;43.22;18.42;;;;;;;16.07;100.00;101625.19;5012696;28;20045;-74
2021/07/15 00:40:16;;;;;;;48.92;19.27;;;;;;;16.03;100.00;101628.94;5011354;28;20061;-74
2021/07/15 00:42:44;;;;;;;46.40;18.05;;;;;;;16.06;100.00;101639.59;5010721;28;20047;-74
2021/07/15 00:45:15;;;;;;;48.70;20.25;;;;;;;16.03;100.00;101631.66;5015696;28;20168;-74
2021/07/15 00:47:43;;;;;;;49.20;19.02;;;;;;;16.08;100.00;101640.41;5010489;28;20062;-74
2021/07/15 00:50:13;;;;;;;53.13;20.88;;;;;;;16.06;100.00;101635.09;5011564;28;20108;-74
2021/07/15 00:52:44;;;;;;;53.60;19.50;;;;;;;16.06;100.00;101635.09;5014327;28;20464;-74
2021/07/15 00:55:16;;;;;;;44.58;18.33;;;;;;;16.05;100.00;101635.13;5012052;28;20145;-74
2021/07/15 00:57:45;;;;;;;53.15;19.15;;;;;;;16.03;100.00;101631.66;5011520;28;20506;-74
2021/07/15 01:00:16;;;;;;;40.17;16.77;;;;;;;16.04;100.00;101626.19;5013355;28;20065;-74
2021/07/15 01:02:44;;;;;;;47.75;19.30;;;;;;;16.03;100.00;101619.06;5010649;28;20045;-74
2021/07/15 01:05:16;;;;;;;48.75;18.80;;;;;;;16.04;100.00;101622.66;5014634;28;20065;-74
2021/07/15 01:07:45;;;;;;;43.28;17.35;;;;;;;16.03;100.00;101620.88;5012148;28;20098;-74
2021/07/15 01:10:16;;;;;;;46.78;18.00;;;;;;;16.06;100.00;101627.00;5011223;28;20092;-74
2021/07/15 01:13:01;;;;;;;48.75;19.83;;;;;;;16.02;100.00;101630.78;5009494;28;20066;-73
2021/07/15 01:15:41;;;;;;;47.38;20.05;;;;;;;16.03;100.00;101628.94;5011757;28;20066;-74
2021/07/15 01:18:19;;;;;;;53.75;18.38;;;;;;;16.01;100.00;101630.84;5011867;28;20057;-73
2021/07/15 01:21:10;;;;;;;45.65;18.17;;;;;;;16.03;100.00;101634.34;5010866;28;20074;-73
2021/07/15 01:24:00;;;;;;;41.40;17.60;;;;;;;16.04;100.00;101628.03;5014725;28;20454;-73
2021/07/15 01:26:48;;;;;;;45.17;17.77;;;;;;;16.05;100.00;101633.31;5013663;28;20448;-73
2021/07/15 01:29:23;;;;;;;50.65;19.63;;;;;;;16.06;100.00;101632.38;5009510;28;20069;-73
2021/07/15 01:31:56;;;;;;;41.50;17.92;;;;;;;16.10;100.00;101635.81;5008434;28;20492;-73
2021/07/15 01:34:27;;;;;;;42.05;17.02;;;;;;;16.07;100.00;101635.94;5009041;28;20069;-73
2021/07/15 01:36:57;;;;;;;45.65;18.05;;;;;;;16.08;100.00;101642.22;5017071;28;20360;-74
2021/07/15 01:39:29;;;;;;;37.28;16.45;;;;;;;16.07;100.00;101649.41;5013624;28;20080;-73
2021/07/15 01:42:03;;;;;;;39.63;16.10;;;;;;;16.06;100.00;101644.97;5012093;28;20095;-73
2021/07/15 01:44:32;;;;;;;43.00;17.58;;;;;;;16.07;100.00;101644.03;5011768;28;20066;-74
2021/07/15 01:47:01;;;;;;;37.60;16.25;;;;;;;16.04;100.00;101639.66;5013736;28;20118;-73
2021/07/15 01:49:29;;;;;;;39.70;18.48;;;;;;;16.09;100.00;101644.84;5010622;28;20065;-73
2021/07/15 01:51:59;;;;;;;36.08;14.88;;;;;;;16.11;100.00;101648.34;5009283;28;20066;-73
2021/07/15 01:54:28;;;;;;;38.28;16.60;;;;;;;16.09;100.00;101636.78;5012688;28;20056;-73
2021/07/15 01:56:57;;;;;;;32.20;15.00;;;;;;;16.04;100.00;101638.78;5011122;28;20144;-73
2021/07/15 01:59:30;;;;;;;43.60;16.90;;;;;;;16.03;100.00;101631.66;5011354;28;20070;-73
2021/07/15 02:01:59;;;;;;;38.80;16.63;;;;;;;16.04;100.00;101633.41;5009557;28;20046;-73
2021/07/15 02:04:31;;;;;;;35.28;16.30;;;;;;;16.06;100.00;101637.78;5012132;28;20092;-74
2021/07/15 02:07:01;;;;;;;45.00;16.30;;;;;;;16.02;100.00;101635.25;5008119;28;20433;-73
2021/07/15 02:09:30;;;;;;;41.33;16.33;;;;;;;16.04;100.00;101630.72;5012397;28;20066;-73
2021/07/15 02:11:58;;;;;;;36.50;16.15;;;;;;;16.01;100.00;101631.72;5011211;28;20065;-73
2021/07/15 02:14:28;;;;;;;44.30;17.38;;;;;;;15.98;100.00;101631.84;5012895;28;20341;-73
2021/07/15 02:17:00;;;;;;;40.17;17.17;;;;;;;15.95;100.00;101609.56;5009131;28;20058;-73
2021/07/15 02:19:31;;;;;;;36.35;16.80;;;;;;;15.95;100.00;101614.94;5011004;28;20061;-73
2021/07/15 02:21:59;;;;;;;39.22;15.73;;;;;;;15.98;100.00;101618.38;5013061;28;20577;-73
2021/07/15 02:24:30;;;;;;;45.58;18.08;;;;;;;15.94;100.00;101611.38;5008972;28;20073;-69
2021/07/15 02:26:58;;;;;;;35.25;16.25;;;;;;;15.91;100.00;101618.72;5011610;28;20065;-70
2021/07/15 02:29:27;;;;;;;44.58;17.20;;;;;;;15.90;100.00;101600.81;5010995;28;20150;-70
2021/07/15 02:31:58;;;;;;;41.85;16.73;;;;;;;15.83;100.00;101609.16;5008200;28;20061;-70
2021/07/15 02:34:31;;;;;;;46.78;17.83;;;;;;;15.87;100.00;101602.69;5007672;28;20505;-70
2021/07/15 02:37:01;;;;;;;48.77;18.37;;;;;;;15.84;100.00;101607.34;5011362;28;20364;-70
2021/07/15 02:39:29;;;;;;;43.30;19.75;;;;;;;15.82;100.00;101593.94;5011840;28;20366;-69
2021/07/15 02:41:57;;;;;;;41.40;17.10;;;;;;;15.85;100.00;101596.50;5007685;28;20061;-70
2021/07/15 02:44:26;;;;;;;44.22;20.58;;;;;;;15.84;100.00;101607.34;5011769;28;20061;-70
2021/07/15 02:46:53;;;;;;;43.67;17.38;;;;;;;15.86;100.00;101597.38;5014722;28;20089;-69
2021/07/15 02:49:21;;;;;;;41.75;17.30;;;;;;;15.84;100.00;101594.75;5009231;28;20078;-69
2021/07/15 02:51:50;;;;;;;44.20;18.05;;;;;;;15.80;100.00;101592.22;5015393;28;20065;-69
2021/07/15 02:54:19;;;;;;;47.00;18.88;;;;;;;15.80;100.00;101586.84;5010077;28;20077;-70
2021/07/15 02:56:49;;;;;;;49.35;17.65;;;;;;;15.78;100.00;101592.31;5012236;28;20045;-70
2021/07/15 02:59:22;;;;;;;48.90;18.95;;;;;;;15.77;100.00;101604.03;5013430;28;20054;-70
2021/07/15 03:01:52;;;;;;;47.60;19.17;;;;;;;15.77;100.00;101595.09;5010583;28;20084;-69
2021/07/15 03:04:29;;;;;;;44.42;17.27;;;;;;;15.77;100.00;101590.56;5009707;28;20089;-70
2021/07/15 03:07:03;;;;;;;45.88;20.58;;;;;;;15.79;100.00;101586.00;5011098;28;20116;-71
2021/07/15 03:09:33;;;;;;;46.03;19.02;;;;;;;15.79;100.00;101595.88;5008574;28;20061;-69
2021/07/15 03:12:06;;;;;;;50.25;18.23;;;;;;;15.79;100.00;101602.13;5013563;28;20093;-70
2021/07/15 03:14:37;;;;;;;36.55;15.45;;;;;;;15.76;100.00;101607.63;5010396;28;20073;-70
2021/07/15 03:17:08;;;;;;;44.45;17.60;;;;;;;15.77;100.00;101609.41;5014127;28;20062;-70
2021/07/15 03:19:38;;;;;;;49.90;17.60;;;;;;;15.78;100.00;101604.88;5009172;28;20057;-69
2021/07/15 03:22:08;;;;;;;47.05;18.27;;;;;;;15.76;100.00;101610.31;5011350;28;20096;-70
2021/07/15 03:24:40;;;;;;;36.55;15.82;;;;;;;15.81;100.00;101599.38;5013095;28;20065;-70
2021/07/15 03:27:10;;;;;;;40.85;15.10;;;;;;;15.78;100.00;101604.88;5011106;28;20439;-70
2021/07/15 03:29:40;;;;;;;47.85;16.88;;;;;;;15.76;100.00;101596.00;5017513;28;20114;-71
2021/07/15 03:32:08;;;;;;;49.17;17.30;;;;;;;15.75;100.00;101607.66;5009398;28;20046;-72
2021/07/15 03:34:37;;;;;;;38.42;15.25;;;;;;;15.78;100.00;101608.47;5007614;28;20058;-71
2021/07/15 03:37:06;;;;;;;42.95;16.85;;;;;;;15.76;100.00;101617.53;5011374;28;20061;-71
2021/07/15 03:39:36;;;;;;;38.28;15.80;;;;;;;15.75;100.00;101613.97;5010387;28;20556;-70
2021/07/15 03:42:05;;;;;;;43.78;16.08;;;;;;;15.80;100.00;101613.75;5012584;28;20069;-70
2021/07/15 03:44:33;;;;;;;38.30;15.45;;;;;;;15.77;100.00;101608.53;5011355;28;20678;-70
2021/07/15 03:47:02;;;;;;;35.78;15.60;;;;;;;15.79;100.00;101615.59;5013813;28;20061;-70
2021/07/15 03:49:30;;;;;;;42.30;16.40;;;;;;;15.82;100.00;101620.84;5014281;28;20337;-69
2021/07/15 03:51:58;;;;;;;41.60;15.10;;;;;;;15.81;100.00;101629.84;5009769;28;20069;-73
2021/07/15 03:54:27;;;;;;;42.95;15.27;;;;;;;15.84;100.00;101628.84;5014617;28;20066;-72
2021/07/15 03:56:58;;;;;;;42.42;14.50;;;;;;;15.84;100.00;101621.66;5013345;28;20065;-72
2021/07/15 03:59:29;;;;;;;41.58;16.38;;;;;;;15.83;100.00;101624.41;5011820;28;20164;-72
2021/07/15 04:02:01;;;;;;;32.72;15.05;;;;;;;15.87;100.00;101623.34;5013279;28;20507;-69
2021/07/15 04:04:31;;;;;;;43.20;13.75;;;;;;;15.91;100.00;101632.16;5010415;28;20073;-69
2021/07/15 04:07:02;;;;;;;44.10;17.30;;;;;;;15.86;100.00;101627.84;5011101;28;20399;-69
2021/07/15 04:09:32;;;;;;;37.75;15.82;;;;;;;15.91;100.00;101632.16;5009797;28;20069;-69
2021/07/15 04:12:02;;;;;;;32.15;15.13;;;;;;;15.94;100.00;101635.59;5010509;28;20066;-69
2021/07/15 04:14:44;;;;;;;32.25;15.07;;;;;;;16.03;100.00;101637.91;5016842;28;20065;-69
2021/07/15 04:17:15;;;;;;;34.03;14.40;;;;;;;16.00;100.00;101634.47;5010460;28;20073;-68
2021/07/15 04:19:45;;;;;;;36.08;14.90;;;;;;;16.03;100.00;101637.03;5013654;28;20048;-68
2021/07/15 04:22:14;;;;;;;33.10;14.98;;;;;;;16.03;100.00;101631.66;5008791;28;20066;-69
2021/07/15 04:24:44;;;;;;;37.60;16.38;;;;;;;16.05;100.00;101648.59;5010046;28;20073;-72
2021/07/15 04:27:14;;;;;;;36.70;14.93;;;;;;;16.07;100.00;101644.03;5015457;28;20065;-72
2021/07/15 04:29:42;;;;;;;40.08;16.50;;;;;;;16.11;100.00;101647.50;5011091;28;20062;-72
2021/07/15 04:32:16;;;;;;;35.03;17.92;;;;;;;16.13;100.00;101650.97;5013271;28;20415;-73
2021/07/15 04:34:46;;;;;;;46.17;16.70;;;;;;;16.12;100.00;101652.78;5009797;28;20181;-73
2021/07/15 04:37:17;;;;;;;41.53;17.98;;;;;;;16.09;100.00;101644.84;5011986;28;20065;-73
2021/07/15 04:39:46;;;;;;;36.83;16.05;;;;;;;16.11;100.00;101671.72;5010226;28;20433;-72
2021/07/15 04:42:18;;;;;;;31.35;15.60;;;;;;;16.04;100.00;101657.63;5010109;28;20069;-73
2021/07/15 04:44:47;;;;;;;42.88;15.90;;;;;;;16.05;100.00;101654.84;5011593;28;20575;-73
2021/07/15 04:47:19;;;;;;;39.50;16.70;;;;;;;16.09;100.00;101661.00;5007265;28;20073;-73
2021/07/15 04:49:47;;;;;;;37.22;15.32;;;;;;;16.05;100.00;101667.44;5010678;28;20045;-73
2021/07/15 04:52:17;;;;;;;37.58;16.23;;;;;;;16.11;100.00;101677.09;5011586;28;20132;-69
2021/07/15 04:54:47;;;;;;;31.55;16.15;;;;;;;16.11;100.00;101680.66;5011051;28;20401;-70
2021/07/15 04:57:17;;;;;;;40.40;15.77;;;;;;;16.08;100.00;101680.78;5009484;28;20157;-70
2021/07/15 04:59:45;;;;;;;37.10;16.88;;;;;;;16.04;100.00;101680.03;5009802;28;20484;-70
2021/07/15 05:02:13;;;;;;;42.58;16.63;;;;;;;16.06;100.00;101680.84;5010855;28;20064;-70
2021/07/15 05:04:41;;;;;;;36.00;16.05;;;;;;;16.04;100.00;101666.56;5016510;28;20097;-70
2021/07/15 05:07:09;;;;;;;41.55;16.13;;;;;;;16.03;100.00;101670.19;5011194;28;20526;-69
2021/07/15 05:09:37;;;;;;;35.70;15.70;;;;;;;16.05;100.00;101668.31;5016408;28;20321;-69
2021/07/15 05:12:05;;;;;;;41.20;15.52;;;;;;;16.04;100.00;101673.78;5007737;28;20064;-69
2021/07/15 05:14:41;;;;;;;35.85;15.40;;;;;;;16.11;100.00;101663.63;5011466;28;20061;-72
2021/07/15 05:17:09;;;;;;;39.63;14.70;;;;;;;16.13;100.00;101665.31;5013091;28;20053;-72
2021/07/15 05:19:38;;;;;;;35.80;16.50;;;;;;;16.13;100.00;101667.13;5010213;28;20050;-72
2021/07/15 05:22:05;;;;;;;38.22;14.85;;;;;;;16.17;100.00;101676.81;5013308;28;20385;-72
2021/07/15 05:24:33;;;;;;;35.15;14.05;;;;;;;16.13;100.00;101673.38;5006337;28;20140;-72
2021/07/15 05:27:01;;;;;;;32.40;14.48;;;;;;;16.19;100.00;101680.31;5011374;28;20069;-72
2021/07/15 05:29:29;;;;;;;43.42;15.85;;;;;;;16.13;100.00;101678.78;5010323;28;20452;-72
2021/07/15 05:31:58;;;;;;;34.72;14.70;;;;;;;16.16;100.00;101675.97;5008639;28;20069;-73
2021/07/15 05:34:26;;;;;;;38.55;16.00;;;;;;;16.12;100.00;101682.38;5009209;28;20045;-74
2021/07/15 05:36:54;;;;;;;33.45;14.07;;;;;;;16.13;100.00;101673.38;5010237;28;20093;-72
2021/07/15 05:39:22;;;;;;;28.63;13.18;;;;;;;16.12;100.00;101678.84;5009346;28;20065;-72
2021/07/15 05:41:49;;;;;;;30.65;13.52;;;;;;;16.18;100.00;101670.50;5011079;28;20066;-72
2021/07/15 05:44:18;;;;;;;37.67;15.35;;;;;;;16.19;100.00;101669.56;5012219;28;20369;-72
2021/07/15 05:46:46;;;;;;;36.45;14.23;;;;;;;16.18;100.00;101675.91;5010398;28;20049;-75
2021/07/15 05:49:34;;;;;;;39.10;13.55;;;;;;;16.18;100.00;101666.00;5013050;28;20072;-72
2021/07/15 05:52:02;;;;;;;33.15;12.77;;;;;;;16.15;100.00;101678.72;5012256;28;20425;-72
2021/07/15 05:54:30;;;;;;;44.00;13.93;;;;;;;16.16;100.00;101680.47;5015877;28;20124;-71
2021/07/15 05:56:58;;;;;;;35.28;14.60;;;;;;;16.14;100.00;101682.34;5013264;28;20080;-71
2021/07/15 05:59:26;;;;;;;32.30;13.52;;;;;;;16.17;100.00;101690.28;5012083;28;20085;-74
2021/07/15 06:01:54;;;;;;;30.52;11.98;;;;;;;16.18;100.00;101689.34;5010428;28;20426;-71
2021/07/15 06:04:23;;;;;;;35.05;13.00;;;;;;;16.21;100.00;101686.53;5009367;28;20061;-72
2021/07/15 06:06:54;;;;;;;26.65;12.55;;;;;;;16.25;100.00;101680.06;5008895;28;20080;-68
2021/07/15 06:09:23;;;;;;;36.15;14.52;;;;;;;16.24;100.00;101683.69;5005759;28;20441;-72
2021/07/15 06:11:51;;;;;;;35.22;13.65;;;;;;;16.28;100.00;101690.72;5008096;28;20057;-72
2021/07/15 06:14:20;;;;;;;31.98;13.55;;;;;;;16.26;100.00;101692.59;5007936;28;20049;-70
2021/07/15 06:16:48;;;;;;;32.30;14.07;;;;;;;16.24;100.00;101695.34;5007730;28;20053;-71
2021/07/15 06:19:18;;;;;;;39.45;15.05;;;;;;;16.21;100.00;101691.94;5009988;28;20064;-72
2021/07/15 06:21:46;;;;;;;34.72;14.50;;;;;;;16.28;100.00;101689.81;5003889;28;20076;-73
2021/07/15 06:24:15;;;;;;;32.97;14.50;;;;;;;16.34;99.90;101692.25;5008527;28;20187;-72
2021/07/15 06:26:44;;;;;;;33.97;15.07;;;;;;;16.43;99.05;101692.75;5006432;28;20080;-72
2021/07/15 06:29:12;;;;;;;30.63;14.13;;;;;;;16.46;98.63;101689.03;5009017;28;20053;-73
2021/07/15 06:31:39;;;;;;;29.10;13.38;;;;;;;16.56;98.12;101711.94;5010432;28;20146;-72
2021/07/15 06:34:07;;;;;;;32.55;13.05;;;;;;;16.51;97.83;101705.00;5007706;28;20065;-69
2021/07/15 06:36:35;;;;;;;32.33;13.52;;;;;;;16.56;97.48;101711.06;5008174;28;20097;-68
2021/07/15 06:39:04;;;;;;;28.33;12.25;;;;;;;16.57;97.96;101719.09;5009094;28;20186;-68
2021/07/15 06:41:33;;;;;;;28.40;13.35;;;;;;;16.52;97.94;101717.53;5007053;28;20132;-68
2021/07/15 06:44:01;;;;;;;28.25;12.27;;;;;;;16.47;98.23;101704.25;5013101;28;20061;-69
2021/07/15 06:46:28;;;;;;;28.73;12.73;;;;;;;16.51;98.23;101703.19;5011215;28;20069;-72
2021/07/15 06:48:56;;;;;;;31.42;14.70;;;;;;;16.51;98.07;101708.56;5009467;28;20046;-72
2021/07/15 06:51:24;;;;;;;26.95;13.50;;;;;;;16.51;98.08;101707.69;5011816;28;20069;-72
2021/07/15 06:53:53;;;;;;;33.00;13.82;;;;;;;16.49;98.27;101720.38;5005130;28;21045;-72
2021/07/15 06:56:21;;;;;;;30.25;12.80;;;;;;;16.55;97.76;101720.09;5009121;28;20152;-72
2021/07/15 06:58:51;;;;;;;27.63;12.90;;;;;;;16.43;97.34;101721.50;5007366;28;20061;-71
2021/07/15 07:01:19;;;;;;;29.40;12.88;;;;;;;16.48;97.35;101722.19;5008294;28;20473;-68
2021/07/15 07:03:46;;;;;;;27.27;12.10;;;;;;;16.48;97.19;101727.59;5009123;28;20049;-68
2021/07/15 07:06:14;;;;;;;28.48;13.32;;;;;;;16.44;96.77;101739.41;5008871;28;20088;-69
2021/07/15 07:08:42;;;;;;;28.02;12.73;;;;;;;16.47;96.43;101741.13;5008659;28;20061;-69
2021/07/15 07:11:10;;;;;;;26.80;12.40;;;;;;;16.52;96.58;101753.44;5007661;28;20062;-69
2021/07/15 07:13:37;;;;;;;27.50;12.10;;;;;;;16.55;96.44;101755.09;5009744;28;20601;-69
2021/07/15 07:16:07;;;;;;;28.85;12.35;;;;;;;16.58;96.23;101758.56;5013432;28;20089;-69
2021/07/15 07:18:35;;;;;;;29.08;12.80;;;;;;;16.62;95.34;101751.22;5012119;28;20460;-70
2021/07/15 07:21:03;;;;;;;22.90;11.50;;;;;;;16.66;95.49;101746.59;5013987;28;20437;-72
2021/07/15 07:23:30;;;;;;;29.75;12.85;;;;;;;16.68;95.16;101753.63;5010771;28;20116;-73
2021/07/15 07:25:58;;;;;;;23.25;11.43;;;;;;;16.70;95.32;101750.88;5013425;28;20825;-72
2021/07/15 07:28:27;;;;;;;27.80;12.25;;;;;;;16.73;94.78;101753.44;5013081;28;20123;-72
2021/07/15 07:30:55;;;;;;;23.27;10.65;;;;;;;16.84;94.07;101758.34;5010935;28;20062;-72
2021/07/15 07:33:24;;;;;;;23.30;11.18;;;;;;;16.87;93.77;101751.03;5012070;28;20068;-72
2021/07/15 07:35:52;;;;;;;22.88;10.68;;;;;;;16.91;93.77;101747.28;5014137;28;20096;-70
2021/07/15 07:38:20;;;;;;;24.23;10.98;;;;;;;16.92;93.87;101750.84;5010081;28;20065;-70
2021/07/15 07:40:47;;;;;;;25.60;11.73;;;;;;;17.11;93.23;101753.59;5012091;28;20093;-72
2021/07/15 07:43:15;;;;;;;26.27;11.73;;;;;;;17.14;92.36;101754.34;5009494;28;20062;-72
2021/07/15 07:45:43;;;;;;;29.90;11.70;;;;;;;17.16;92.35;101755.16;5014732;28;20093;-72
2021/07/15 07:48:11;;;;;;;27.73;11.05;;;;;;;17.18;92.24;101768.59;5009810;28;20061;-72
2021/07/15 07:50:40;;;;;;;28.83;11.93;;;;;;;17.20;92.22;101773.88;5014284;28;20073;-72
2021/07/15 07:53:08;;;;;;;25.95;12.65;;;;;;;17.28;92.21;101775.31;5012388;28;20100;-69
2021/07/15 07:55:36;;;;;;;25.38;12.65;;;;;;;17.37;91.91;101771.31;5011241;28;20069;-69
2021/07/15 07:58:04;;;;;;;29.88;11.38;;;;;;;17.27;91.58;101761.91;5008788;28;20068;-69
2021/07/15 08:00:32;;;;;;;25.10;11.70;;;;;;;17.51;90.57;101774.22;5015081;28;20062;-69
2021/07/15 08:03:00;;;;;;;23.13;10.55;;;;;;;17.59;90.62;101773.91;5008728;28;20147;-68
2021/07/15 08:05:28;;;;;;;28.52;11.52;;;;;;;17.77;89.43;101766.72;5015480;28;20069;-69
2021/07/15 08:07:57;;;;;;;26.92;10.65;;;;;;;17.83;88.84;101776.38;5012963;28;20070;-69
2021/07/15 08:10:24;;;;;;;23.02;11.18;;;;;;;17.86;89.02;101777.16;5012389;28;20516;-68
2021/07/15 08:12:54;;;;;;;22.55;10.65;;;;;;;17.89;87.74;101789.59;5014981;28;20168;-69
2021/07/15 08:15:22;;;;;;;25.13;10.02;;;;;;;17.78;88.50;101782.00;5010888;28;20535;-69
2021/07/15 08:17:50;;;;;;;26.10;11.10;;;;;;;17.68;88.75;101788.78;5014356;28;20065;-68
2021/07/15 08:20:18;;;;;;;25.17;10.52;;;;;;;17.63;88.83;101796.22;5011627;28;20069;-69
2021/07/15 08:22:46;;;;;;;24.27;11.27;;;;;;;17.63;89.48;101796.22;5011601;28;20148;-70
2021/07/15 08:25:19;;;;;;;25.98;12.10;;;;;;;17.67;89.06;101787.91;5011061;28;20062;-72
2021/07/15 08:27:47;;;;;;;26.37;11.57;;;;;;;17.62;89.05;101791.75;5014866;28;20401;-72
2021/07/15 08:30:17;;;;;;;27.27;11.15;;;;;;;17.73;88.94;101797.53;5016319;28;20061;-73
2021/07/15 08:32:45;;;;;;;30.42;12.32;;;;;;;17.91;88.47;101804.78;5015712;28;20076;-74
2021/07/15 08:35:25;;;;;;;27.38;11.38;;;;;;;18.01;87.34;101794.41;5010742;28;20065;-69
2021/07/15 08:37:53;;;;;;;23.67;11.32;;;;;;;17.94;88.28;101789.38;5012656;28;20543;-68
2021/07/15 08:40:23;;;;;;;23.45;10.98;;;;;;;17.92;87.53;101795.72;5009473;28;20095;-69
2021/07/15 08:42:52;;;;;;;22.88;10.65;;;;;;;17.85;87.87;101812.28;5013137;28;20099;-73
2021/07/15 08:45:19;;;;;;;27.75;12.05;;;;;;;17.85;88.10;101805.03;5010117;28;20104;-69
2021/07/15 08:47:49;;;;;;;30.15;11.00;;;;;;;17.74;88.12;101805.56;5012979;28;20062;-73
2021/07/15 08:50:18;;;;;;;30.90;11.15;;;;;;;17.96;87.54;101803.69;5017668;28;20064;-68
2021/07/15 08:52:46;;;;;;;18.30;10.82;;;;;;;17.86;86.83;101804.13;5011663;28;20480;-69
2021/07/15 08:58:03;;;;;;;20.55;10.55;;;;;;;17.88;86.90;101818.44;5010687;28;20148;-73
2021/07/15 09:00:31;;;;;;;21.35;10.15;;;;;;;17.81;87.16;101826.84;5012145;28;20068;-72
2021/07/15 09:02:59;;;;;;;24.08;11.65;;;;;;;17.84;87.21;101822.22;5010760;28;20093;-68
2021/07/15 09:05:27;;;;;;;23.98;11.63;;;;;;;17.91;86.53;101822.78;5006857;28;21018;-73
2021/07/15 09:07:54;;;;;;;25.75;10.60;;;;;;;17.96;86.37;101825.28;5013192;28;20061;-72
2021/07/15 09:10:22;;;;;;;22.48;10.23;;;;;;;17.60;87.27;101837.69;5009784;28;20084;-73
2021/07/15 09:12:50;;;;;;;23.50;10.50;;;;;;;17.87;87.02;101832.00;5010849;28;20061;-72
2021/07/15 09:15:19;;;;;;;24.58;11.52;;;;;;;17.87;87.17;101840.97;5009532;28;20061;-72
2021/07/15 09:17:47;;;;;;;23.55;11.57;;;;;;;17.88;86.99;101840.03;5007084;28;20061;-73
2021/07/15 09:20:18;;;;;;;27.40;11.63;;;;;;;17.78;87.40;101841.38;5011816;28;20149;-68
2021/07/15 09:23:00;;;;;;;25.90;11.48;;;;;;;17.67;87.33;101836.50;5009588;28;20062;-73
2021/07/15 09:25:30;;;;;;;21.25;10.95;;;;;;;17.92;86.44;101847.03;5012041;28;20065;-69
2021/07/15 09:27:57;;;;;;;22.30;10.82;;;;;;;17.95;86.42;101850.56;5008804;28;20089;-69
2021/07/15 09:30:27;;;;;;;22.83;10.48;;;;;;;18.31;86.21;101856.00;5010267;28;20108;-68
2021/07/15 09:32:56;;;;;;;27.20;10.50;;;;;;;18.15;85.85;101845.06;5009918;28;21063;-70
2021/07/15 09:35:30;;;;;;;23.60;10.38;;;;;;;18.42;84.81;101836.56;5012691;28;20073;-68
2021/07/15 09:38:09;;;;;;;24.75;10.95;;;;;;;18.38;84.82;101838.53;5010033;28;20332;-69
2021/07/15 09:40:38;;;;;;;20.42;9.68;;;;;;;18.59;83.32;101854.63;5016578;28;20128;-73
2021/07/15 09:43:14;;;;;;;26.17;10.75;;;;;;;18.51;84.62;101852.34;5006736;28;20065;-74
2021/07/15 09:45:44;;;;;;;26.92;10.90;;;;;;;18.59;83.22;101842.03;5011567;28;21814;-74
2021/07/15 09:48:19;;;;;;;21.08;10.18;;;;;;;18.69;83.41;101852.38;5003737;28;20169;-69
2021/07/15 09:50:48;;;;;;;28.75;10.93;;;;;;;19.22;81.53;101856.88;5008843;28;20066;-69
2021/07/15 09:53:19;;;;;;;24.73;10.57;;;;;;;19.31;81.23;101853.69;5013076;28;20070;-69
2021/07/15 09:55:48;;;;;;;24.23;10.57;;;;;;;19.04;81.70;101853.31;5011726;28;20099;-69
2021/07/15 09:58:16;;;;;;;24.27;11.52;;;;;;;18.65;81.81;101862.47;5015078;28;20494;-70
2021/07/15 10:00:46;;;;;;;21.38;11.10;;;;;;;18.69;82.42;101865.88;5009187;28;20072;-72
2021/07/15 10:03:16;;;;;;;21.42;11.30;;;;;;;18.36;83.85;101866.59;5010223;28;20156;-68
2021/07/15 10:05:53;;;;;;;23.15;10.50;;;;;;;18.41;84.17;101870.81;5014500;28;20258;-74
2021/07/15 10:08:26;;;;;;;24.00;11.65;;;;;;;18.35;84.41;101876.50;5011072;28;20064;-68
2021/07/15 10:10:55;;;;;;;25.23;11.15;;;;;;;18.53;84.01;101880.16;5015177;28;20462;-71
2021/07/15 10:13:25;;;;;;;20.23;11.43;;;;;;;18.32;83.81;101852.38;5010151;28;20057;-72
2021/07/15 10:15:54;;;;;;;22.77;11.38;;;;;;;18.24;84.45;101879.75;5010526;28;20072;-74
2021/07/15 10:18:37;;;;;;;25.85;10.82;;;;;;;18.46;84.24;101879.56;5009366;28;20088;-74
2021/07/15 10:21:06;;;;;;;29.00;11.00;;;;;;;18.52;83.22;101869.41;5010398;28;20142;-75
2021/07/15 10:23:36;;;;;;;24.27;11.15;;;;;;;18.30;84.15;101878.56;5013538;28;20349;-71
2021/07/15 10:26:24;;;;;;;22.13;10.77;;;;;;;18.33;84.22;101880.25;5008679;28;20374;-70
2021/07/15 10:28:53;;;;;;;21.92;11.27;;;;;;;18.24;84.91;101879.75;5013381;28;20042;-74
2021/07/15 10:31:24;;;;;;;25.40;12.63;;;;;;;18.17;85.30;101874.72;5014917;28;20111;-74
2021/07/15 10:33:54;;;;;;;21.65;10.55;;;;;;;18.36;85.01;101872.88;5012750;28;20061;-70
2021/07/15 10:36:23;;;;;;;25.33;10.55;;;;;;;18.47;84.18;101873.22;5011170;28;20075;-73
2021/07/15 10:38:56;;;;;;;23.67;11.57;;;;;;;18.52;84.20;101874.81;5011036;28;20108;-70
2021/07/15 10:41:24;;;;;;;25.98;11.40;;;;;;;18.05;84.73;101885.13;5014086;28;20058;-70
2021/07/15 10:43:54;;;;;;;23.45;11.27;;;;;;;18.19;84.67;101889.03;5009515;28;20091;-69
2021/07/15 10:46:30;;;;;;;26.15;12.25;;;;;;;18.23;84.13;101887.91;5011607;28;20136;-74
2021/07/15 10:49:19;;;;;;;22.40;11.65;;;;;;;18.16;84.41;101887.31;5012292;28;20508;-70
2021/07/15 10:51:49;;;;;;;23.35;11.23;;;;;;;18.39;83.89;101882.63;5012221;28;20069;-74
2021/07/15 10:54:18;;;;;;;21.02;10.85;;;;;;;18.40;84.72;101887.09;5022552;28;20088;-74
2021/07/15 10:56:48;;;;;;;29.23;12.27;;;;;;;18.24;84.39;101890.53;5011387;28;20054;-70
2021/07/15 10:59:23;;;;;;;23.42;12.07;;;;;;;18.36;84.42;101888.22;5013312;28;20062;-70
2021/07/15 11:01:53;;;;;;;28.30;11.85;;;;;;;18.19;84.84;101898.00;5017883;28;20066;-70
2021/07/15 11:04:35;;;;;;;29.27;11.68;;;;;;;18.23;85.17;101888.78;5015559;28;20461;-75
2021/07/15 11:07:17;;;;;;;19.02;11.02;;;;;;;18.43;84.28;101884.25;5015134;28;20281;-74
2021/07/15 11:09:45;;;;;;;22.15;11.40;;;;;;;18.60;84.35;101876.19;5014427;28;20096;-69
2021/07/15 11:12:36;;;;;;;21.55;10.45;;;;;;;18.48;84.22;101888.47;5010016;28;20073;-69
2021/07/15 11:15:09;;;;;;;25.00;10.55;;;;;;;18.52;83.99;101888.34;5005699;28;20065;-73
2021/07/15 11:17:48;;;;;;;25.63;11.60;;;;;;;18.39;84.18;101891.63;5011531;28;20141;-73
2021/07/15 11:20:24;;;;;;;23.52;11.82;;;;;;;18.93;83.69;101889.00;5018299;28;20601;-71